createdAt,value
2023-01-15T00:00:54.492Z,99.99
2023-01-15T00:02:29.124Z,99.99
2023-01-15T00:02:54.452Z,99.99
2023-01-15T00:03:54.669Z,99.99
2023-01-15T00:04:54.380Z,99.99
2023-01-15T00:05:55.406Z,99.99
2023-01-15T00:06:54.415Z,99.99
2023-01-15T00:07:54.456Z,99.99
2023-01-15T00:08:54.348Z,99.99
2023-01-15T00:09:54.623Z,99.99
2023-01-15T00:10:54.310Z,99.99
2023-01-15T00:11:54.296Z,99.99
2023-01-15T00:12:54.301Z,99.99
2023-01-15T00:13:54.233Z,99.99
2023-01-15T00:14:54.537Z,99.99
2023-01-15T00:15:55.514Z,99.99
2023-01-15T00:16:54.387Z,99.99
2023-01-15T00:17:54.298Z,99.99
2023-01-15T00:18:54.161Z,99.99
2023-01-15T00:19:54.130Z,99.99
2023-01-15T00:20:54.296Z,99.99
2023-01-15T00:21:54.310Z,99.99
2023-01-15T00:22:54.282Z,99.99
2023-01-15T00:23:54.235Z,99.99
2023-01-15T00:24:54.241Z,99.99
2023-01-15T00:25:54.052Z,99.99
2023-01-15T00:26:54.069Z,99.99
2023-01-15T00:27:54.238Z,99.99
2023-01-15T00:28:54.237Z,99.99
2023-01-15T00:29:53.965Z,99.99
2023-01-15T00:30:53.971Z,99.99
2023-01-15T00:31:53.931Z,99.99
2023-01-15T00:32:54.189Z,99.99
2023-01-15T00:33:54.028Z,99.99
2023-01-15T00:34:53.877Z,99.99
2023-01-15T00:35:53.851Z,99.99
2023-01-15T00:36:53.906Z,99.99
2023-01-15T00:37:53.896Z,99.99
2023-01-15T00:38:53.948Z,99.99
2023-01-15T00:39:53.801Z,99.99
2023-01-15T00:40:53.781Z,99.99
2023-01-15T00:41:53.745Z,99.99
2023-01-15T00:42:54.645Z,99.99
2023-01-15T00:43:53.805Z,99.99
2023-01-15T00:44:53.863Z,99.99
2023-01-15T00:45:53.842Z,99.99
2023-01-15T00:46:54.675Z,99.99
2023-01-15T00:47:53.696Z,99.99
2023-01-15T00:48:53.632Z,99.99
2023-01-15T00:49:53.730Z,99.99
2023-01-15T00:50:53.590Z,99.99
2023-01-15T00:51:53.571Z,99.99
2023-01-15T00:52:53.597Z,99.99
2023-01-15T00:53:53.569Z,99.99
2023-01-15T00:54:53.572Z,99.99
2023-01-15T00:55:53.724Z,99.99
2023-01-15T00:56:53.706Z,99.99
2023-01-15T00:57:53.512Z,99.99
2023-01-15T00:58:53.603Z,99.99
2023-01-15T00:59:54.585Z,99.99
2023-01-15T01:00:53.506Z,99.99
2023-01-15T01:01:53.605Z,99.99
2023-01-15T01:02:53.661Z,99.99
2023-01-15T01:03:53.557Z,99.99
2023-01-15T01:04:53.357Z,99.99
2023-01-15T01:05:53.491Z,99.99
2023-01-15T01:06:53.511Z,99.99
2023-01-15T01:07:53.401Z,99.99
2023-01-15T01:08:53.471Z,99.99
2023-01-15T01:09:53.489Z,99.99
2023-01-15T01:10:53.454Z,99.99
2023-01-15T01:11:53.324Z,99.99
2023-01-15T01:12:54.267Z,99.99
2023-01-15T01:13:53.193Z,99.99
2023-01-15T01:14:53.221Z,99.99
2023-01-15T01:15:53.209Z,99.99
2023-01-15T01:16:53.154Z,99.98
2023-01-15T01:17:53.155Z,99.93
2023-01-15T01:18:53.118Z,99.57
2023-01-15T01:19:53.101Z,99.93
2023-01-15T01:20:53.144Z,99.51
2023-01-15T01:21:53.069Z,99.99
2023-01-15T01:22:53.107Z,99.88
2023-01-15T01:23:53.153Z,99.99
2023-01-15T01:24:53.033Z,99.41
2023-01-15T01:25:52.990Z,99.82
2023-01-15T01:26:54.705Z,99.62
2023-01-15T01:27:54.171Z,99.41
2023-01-15T01:28:52.961Z,99.10
2023-01-15T01:29:52.943Z,99.05
2023-01-15T01:30:53.055Z,99.46
2023-01-15T01:31:52.882Z,98.84
2023-01-15T01:32:52.935Z,98.84
2023-01-15T01:33:52.891Z,98.06
2023-01-15T01:34:52.842Z,98.33
2023-01-15T01:35:52.853Z,97.96
2023-01-15T01:36:52.825Z,97.81
2023-01-15T01:37:52.813Z,98.22
2023-01-15T01:38:52.772Z,97.50
2023-01-15T01:39:52.811Z,96.11
2023-01-15T01:40:52.782Z,95.74
2023-01-15T01:41:52.734Z,95.23
2023-01-15T01:42:52.727Z,96.05
2023-01-15T01:43:53.696Z,95.84
2023-01-15T01:44:52.700Z,96.15
2023-01-15T01:45:52.839Z,95.78
2023-01-15T01:46:52.720Z,95.99
2023-01-15T01:47:52.708Z,96.55
2023-01-15T01:48:52.637Z,96.75
2023-01-15T01:49:52.585Z,96.66
2023-01-15T01:50:52.583Z,95.52
2023-01-15T01:51:52.683Z,96.03
2023-01-15T01:52:52.626Z,95.73
2023-01-15T01:53:52.526Z,95.52
2023-01-15T01:54:52.537Z,96.24
2023-01-15T01:55:52.486Z,95.73
2023-01-15T01:56:52.493Z,96.39
2023-01-15T01:57:52.605Z,96.49
2023-01-15T01:58:52.448Z,96.28
2023-01-15T01:59:52.434Z,96.80
2023-01-15T02:00:52.478Z,96.49
2023-01-15T02:01:52.445Z,96.49
2023-01-15T02:03:24.081Z,96.59
2023-01-15T02:05:38.932Z,96.70
2023-01-15T02:06:38.953Z,96.08
2023-01-15T02:07:38.961Z,96.08
2023-01-15T02:08:38.921Z,97.11
2023-01-15T02:09:38.885Z,96.18
2023-01-15T02:10:38.879Z,96.91
2023-01-15T02:11:38.860Z,97.11
2023-01-15T02:12:40.124Z,97.11
2023-01-15T02:13:39.993Z,96.39
2023-01-15T02:14:39.966Z,96.70
2023-01-15T02:15:39.949Z,96.84
2023-01-15T02:16:39.950Z,96.49
2023-01-15T02:17:39.941Z,96.18
2023-01-15T02:18:39.925Z,96.39
2023-01-15T02:19:39.872Z,95.98
2023-01-15T02:20:39.867Z,96.08
2023-01-15T02:21:39.823Z,95.81
2023-01-15T02:22:39.855Z,96.12
2023-01-15T02:23:39.811Z,96.53
2023-01-15T02:24:39.885Z,96.33
2023-01-15T02:25:39.876Z,96.02
2023-01-15T02:26:39.773Z,96.12
2023-01-15T02:27:39.780Z,96.12
2023-01-15T02:28:39.779Z,96.84
2023-01-15T02:29:39.700Z,96.74
2023-01-15T02:30:39.721Z,96.95
2023-01-15T02:31:39.779Z,96.44
2023-01-15T02:32:39.658Z,97.05
2023-01-15T02:33:39.674Z,96.84
2023-01-15T02:34:39.616Z,96.64
2023-01-15T02:35:39.605Z,96.95
2023-01-15T02:36:39.573Z,97.26
2023-01-15T02:37:39.603Z,97.05
2023-01-15T02:38:39.554Z,97.56
2023-01-15T02:39:39.540Z,97.77
2023-01-15T02:40:39.510Z,96.74
2023-01-15T02:41:39.518Z,97.36
2023-01-15T02:42:39.470Z,97.26
2023-01-15T02:43:39.490Z,96.74
2023-01-15T02:44:39.459Z,96.44
2023-01-15T02:45:39.472Z,96.53
2023-01-15T02:46:39.436Z,97.51
2023-01-15T02:47:39.395Z,97.30
2023-01-15T02:48:39.437Z,97.16
2023-01-15T02:49:39.357Z,96.69
2023-01-15T02:50:39.350Z,96.58
2023-01-15T02:51:39.340Z,96.58
2023-01-15T02:52:39.313Z,96.79
2023-01-15T02:53:39.387Z,96.48
2023-01-15T02:54:39.284Z,96.58
2023-01-15T02:55:39.244Z,96.73
2023-01-15T02:56:39.246Z,96.94
2023-01-15T02:57:39.219Z,96.52
2023-01-15T02:58:39.225Z,96.62
2023-01-15T02:59:39.184Z,96.83
2023-01-15T03:00:39.264Z,97.08
2023-01-15T03:01:39.302Z,96.52
2023-01-15T03:02:39.146Z,96.52
2023-01-15T03:03:39.156Z,96.52
2023-01-15T03:04:39.098Z,96.83
2023-01-15T03:05:39.077Z,96.56
2023-01-15T03:06:39.062Z,96.77
2023-01-15T03:07:39.050Z,96.67
2023-01-15T03:08:39.047Z,96.20
2023-01-15T03:09:39.005Z,95.78
2023-01-15T03:10:38.987Z,96.82
2023-01-15T03:11:38.989Z,96.72
2023-01-15T03:12:38.951Z,96.61
2023-01-15T03:13:38.977Z,96.61
2023-01-15T03:14:38.916Z,96.97
2023-01-15T03:15:39.056Z,96.66
2023-01-15T03:16:39.970Z,96.66
2023-01-15T03:17:38.876Z,96.66
2023-01-15T03:18:38.890Z,96.14
2023-01-15T03:19:38.845Z,96.24
2023-01-15T03:20:38.810Z,96.29
2023-01-15T03:21:38.799Z,95.94
2023-01-15T03:22:38.783Z,95.46
2023-01-15T03:23:38.794Z,95.25
2023-01-15T03:24:38.751Z,95.50
2023-01-15T03:25:38.738Z,96.12
2023-01-15T03:26:38.759Z,95.19
2023-01-15T03:27:38.721Z,94.84
2023-01-15T03:28:38.710Z,94.89
2023-01-15T03:29:38.676Z,95.46
2023-01-15T03:30:38.711Z,96.12
2023-01-15T03:31:38.636Z,95.87
2023-01-15T03:32:38.617Z,94.47
2023-01-15T03:33:38.632Z,94.68
2023-01-15T03:34:38.575Z,94.84
2023-01-15T03:35:38.566Z,94.06
2023-01-15T03:36:38.553Z,94.16
2023-01-15T03:37:38.533Z,94.32
2023-01-15T03:38:38.547Z,94.16
2023-01-15T03:39:38.488Z,93.33
2023-01-15T03:40:38.485Z,93.43
2023-01-15T03:41:38.461Z,93.23
2023-01-15T03:42:38.433Z,93.23
2023-01-15T03:43:38.598Z,92.91
2023-01-15T03:44:38.408Z,93.64
2023-01-15T03:45:38.499Z,91.67
2023-01-15T03:46:38.377Z,91.78
2023-01-15T03:47:38.369Z,91.67
2023-01-15T03:48:38.372Z,91.26
2023-01-15T03:49:38.334Z,91.67
2023-01-15T03:50:38.308Z,91.01
2023-01-15T03:51:38.294Z,90.74
2023-01-15T03:52:38.265Z,89.71
2023-01-15T03:53:38.321Z,90.44
2023-01-15T03:54:38.230Z,91.05
2023-01-15T03:55:38.220Z,90.64
2023-01-15T03:56:38.195Z,90.95
2023-01-15T03:57:38.191Z,90.44
2023-01-15T03:58:38.196Z,90.74
2023-01-15T03:59:38.189Z,90.02
2023-01-15T04:00:38.122Z,91.16
2023-01-15T04:01:38.236Z,90.12
2023-01-15T04:02:38.095Z,90.44
2023-01-15T04:03:38.223Z,89.50
2023-01-15T04:04:38.089Z,90.26
2023-01-15T04:05:38.043Z,91.05
2023-01-15T04:06:38.019Z,90.12
2023-01-15T04:07:38.022Z,90.26
2023-01-15T04:08:38.025Z,87.88
2023-01-15T04:09:38.096Z,87.47
2023-01-15T04:10:37.968Z,87.16
2023-01-15T04:11:37.936Z,88.09
2023-01-15T04:12:37.937Z,87.95
2023-01-15T04:13:37.953Z,87.37
2023-01-15T04:14:37.890Z,87.78
2023-01-15T04:15:37.890Z,87.47
2023-01-15T04:16:37.968Z,86.96
2023-01-15T04:17:37.864Z,85.30
2023-01-15T04:18:37.843Z,86.23
2023-01-15T04:19:37.804Z,85.82
2023-01-15T04:20:37.787Z,85.78
2023-01-15T04:21:37.761Z,86.44
2023-01-15T04:22:37.775Z,85.40
2023-01-15T04:23:37.764Z,87.78
2023-01-15T04:24:37.712Z,86.29
2023-01-15T04:25:38.755Z,84.95
2023-01-15T04:26:38.692Z,86.54
2023-01-15T04:27:37.780Z,85.99
2023-01-15T04:28:37.684Z,85.09
2023-01-15T04:29:37.651Z,85.92
2023-01-15T04:30:37.650Z,86.96
2023-01-15T04:31:37.596Z,86.33
2023-01-15T04:32:37.575Z,85.50
2023-01-15T04:33:38.748Z,85.61
2023-01-15T04:34:37.533Z,86.44
2023-01-15T04:35:37.517Z,86.85
2023-01-15T04:36:37.495Z,85.57
2023-01-15T04:37:38.484Z,85.61
2023-01-15T04:38:37.514Z,86.29
2023-01-15T04:39:37.455Z,86.60
2023-01-15T04:40:37.431Z,85.50
2023-01-15T04:41:37.423Z,86.09
2023-01-15T04:42:37.426Z,84.37
2023-01-15T04:43:37.446Z,85.16
2023-01-15T04:44:37.383Z,84.27
2023-01-15T04:45:37.413Z,84.64
2023-01-15T04:46:37.355Z,84.27
2023-01-15T04:47:37.337Z,84.68
2023-01-15T04:48:37.319Z,84.37
2023-01-15T04:49:37.286Z,85.19
2023-01-15T04:50:39.637Z,84.47
2023-01-15T04:51:37.239Z,83.81
2023-01-15T04:52:37.230Z,84.43
2023-01-15T04:53:37.247Z,84.16
2023-01-15T04:54:37.208Z,82.78
2023-01-15T04:55:37.163Z,84.78
2023-01-15T04:56:37.179Z,85.36
2023-01-15T04:57:37.135Z,84.22
2023-01-15T04:58:37.155Z,81.68
2023-01-15T04:59:37.095Z,82.81
2023-01-15T05:00:37.087Z,83.29
2023-01-15T05:01:37.245Z,84.27
2023-01-15T05:02:37.236Z,83.12
2023-01-15T05:03:37.046Z,82.40
2023-01-15T05:04:37.081Z,82.67
2023-01-15T05:05:37.001Z,81.88
2023-01-15T05:06:36.972Z,81.84
2023-01-15T05:07:36.968Z,81.57
2023-01-15T05:08:36.984Z,82.29
2023-01-15T05:09:36.943Z,82.50
2023-01-15T05:10:36.914Z,82.60
2023-01-15T05:11:36.899Z,81.68
2023-01-15T05:12:36.873Z,82.81
2023-01-15T05:13:36.983Z,82.81
2023-01-15T05:14:36.847Z,81.78
2023-01-15T05:15:36.837Z,82.09
2023-01-15T05:16:36.818Z,83.64
2023-01-15T05:17:36.789Z,81.78
2023-01-15T05:18:36.794Z,81.71
2023-01-15T05:19:36.753Z,82.92
2023-01-15T05:20:36.741Z,82.81
2023-01-15T05:21:36.710Z,82.71
2023-01-15T05:22:36.706Z,83.06
2023-01-15T05:23:36.736Z,83.68
2023-01-15T05:24:36.669Z,83.58
2023-01-15T05:25:36.646Z,84.58
2023-01-15T05:26:36.648Z,83.64
2023-01-15T05:27:37.647Z,83.64
2023-01-15T05:28:36.661Z,84.68
2023-01-15T05:29:36.596Z,84.27
2023-01-15T05:30:36.568Z,84.27
2023-01-15T05:31:36.562Z,85.55
2023-01-15T05:32:36.535Z,83.89
2023-01-15T05:33:36.557Z,83.78
2023-01-15T05:34:36.500Z,83.99
2023-01-15T05:35:36.523Z,84.41
2023-01-15T05:36:36.462Z,85.13
2023-01-15T05:37:36.466Z,86.07
2023-01-15T05:38:36.476Z,85.86
2023-01-15T05:39:36.421Z,85.65
2023-01-15T05:40:36.384Z,86.37
2023-01-15T05:41:36.374Z,86.68
2023-01-15T05:42:36.352Z,86.37
2023-01-15T05:43:36.458Z,86.17
2023-01-15T05:44:36.358Z,86.68
2023-01-15T05:45:36.316Z,87.82
2023-01-15T05:46:36.333Z,87.51
2023-01-15T05:47:36.273Z,87.41
2023-01-15T05:48:36.251Z,86.89
2023-01-15T05:49:36.331Z,87.10
2023-01-15T05:50:36.225Z,86.37
2023-01-15T05:51:36.209Z,86.47
2023-01-15T05:52:36.181Z,87.82
2023-01-15T05:53:36.265Z,87.82
2023-01-15T05:54:36.267Z,87.37
2023-01-15T05:55:36.147Z,87.16
2023-01-15T05:56:36.131Z,88.20
2023-01-15T05:57:36.154Z,86.89
2023-01-15T05:58:36.096Z,87.06
2023-01-15T05:59:36.107Z,87.72
2023-01-15T06:00:36.100Z,88.34
2023-01-15T06:01:36.149Z,86.68
2023-01-15T06:03:08.434Z,87.72
2023-01-15T06:03:36.020Z,88.34
2023-01-15T06:04:36.023Z,87.62
2023-01-15T06:05:35.990Z,87.82
2023-01-15T06:06:35.958Z,88.45
2023-01-15T06:07:35.952Z,87.97
2023-01-15T06:08:35.955Z,88.24
2023-01-15T06:09:35.974Z,88.39
2023-01-15T06:10:35.904Z,87.97
2023-01-15T06:11:35.880Z,88.07
2023-01-15T06:12:35.861Z,88.24
2023-01-15T06:13:35.844Z,88.59
2023-01-15T06:14:35.875Z,88.48
2023-01-15T06:15:35.813Z,88.65
2023-01-15T06:16:35.791Z,88.69
2023-01-15T06:17:35.768Z,89.28
2023-01-15T06:18:35.796Z,89.21
2023-01-15T06:19:35.764Z,87.97
2023-01-15T06:20:35.719Z,88.69
2023-01-15T06:21:35.752Z,88.69
2023-01-15T06:22:35.684Z,88.59
2023-01-15T06:23:35.690Z,88.48
2023-01-15T06:24:35.692Z,88.90
2023-01-15T06:25:35.640Z,88.79
2023-01-15T06:26:35.628Z,89.00
2023-01-15T06:27:35.649Z,88.69
2023-01-15T06:28:35.595Z,88.79
2023-01-15T06:29:35.641Z,89.42
2023-01-15T06:30:36.334Z,88.69
2023-01-15T06:31:35.604Z,89.21
2023-01-15T06:32:35.553Z,89.31
2023-01-15T06:33:35.518Z,89.73
2023-01-15T06:34:35.549Z,90.29
2023-01-15T06:35:35.471Z,89.52
2023-01-15T06:36:35.464Z,90.19
2023-01-15T06:37:35.457Z,90.56
2023-01-15T06:38:35.440Z,90.14
2023-01-15T06:39:35.439Z,90.04
2023-01-15T06:40:35.398Z,89.62
2023-01-15T06:41:35.366Z,90.04
2023-01-15T06:42:35.356Z,90.04
2023-01-15T06:43:35.356Z,89.52
2023-01-15T06:44:35.363Z,90.08
2023-01-15T06:45:35.296Z,90.14
2023-01-15T06:46:35.317Z,90.60
2023-01-15T06:47:35.276Z,90.35
2023-01-15T06:48:35.242Z,90.50
2023-01-15T06:49:35.252Z,90.66
2023-01-15T06:50:35.208Z,90.50
2023-01-15T06:51:35.182Z,91.08
2023-01-15T06:52:35.170Z,91.64
2023-01-15T06:53:35.150Z,91.12
2023-01-15T06:54:35.173Z,91.02
2023-01-15T06:55:35.128Z,91.02
2023-01-15T06:56:35.100Z,90.33
2023-01-15T06:57:35.086Z,91.12
2023-01-15T06:58:35.068Z,91.22
2023-01-15T06:59:35.071Z,90.19
2023-01-15T07:00:36.044Z,90.50
2023-01-15T07:01:35.048Z,90.91
2023-01-15T07:02:35.039Z,91.33
2023-01-15T07:03:35.016Z,90.39
2023-01-15T07:04:35.021Z,90.81
2023-01-15T07:05:34.950Z,91.12
2023-01-15T07:06:34.938Z,90.50
2023-01-15T07:07:34.923Z,90.56
2023-01-15T07:08:34.902Z,90.29
2023-01-15T07:09:34.905Z,90.66
2023-01-15T07:10:34.868Z,90.70
2023-01-15T07:11:34.860Z,91.33
2023-01-15T07:12:34.820Z,90.70
2023-01-15T07:13:34.803Z,91.18
2023-01-15T07:14:34.818Z,90.77
2023-01-15T07:15:34.772Z,90.29
2023-01-15T07:16:34.826Z,90.60
2023-01-15T07:17:34.730Z,90.50
2023-01-15T07:18:34.809Z,91.12
2023-01-15T07:19:34.745Z,91.74
2023-01-15T07:20:34.694Z,91.53
2023-01-15T07:21:34.672Z,91.12
2023-01-15T07:22:34.685Z,91.33
2023-01-15T07:23:34.695Z,91.74
2023-01-15T07:24:35.660Z,91.95
2023-01-15T07:25:34.605Z,91.74
2023-01-15T07:26:34.589Z,91.53
2023-01-15T07:27:34.569Z,91.74
2023-01-15T07:28:34.579Z,91.33
2023-01-15T07:29:34.574Z,91.18
2023-01-15T07:30:34.520Z,91.53
2023-01-15T07:31:34.588Z,91.70
2023-01-15T07:32:34.488Z,90.66
2023-01-15T07:33:35.474Z,91.49
2023-01-15T07:34:34.503Z,90.70
2023-01-15T07:35:34.439Z,90.66
2023-01-15T07:36:34.408Z,90.77
2023-01-15T07:37:35.413Z,90.77
2023-01-15T07:38:34.390Z,90.56
2023-01-15T07:39:34.406Z,90.77
2023-01-15T07:40:34.353Z,89.94
2023-01-15T07:41:34.364Z,89.62
2023-01-15T07:42:34.357Z,90.14
2023-01-15T07:43:34.309Z,90.19
2023-01-15T07:44:34.308Z,90.35
2023-01-15T07:45:34.297Z,90.97
2023-01-15T07:46:34.247Z,90.56
2023-01-15T07:47:34.243Z,90.25
2023-01-15T07:48:34.221Z,90.29
2023-01-15T07:49:34.226Z,89.62
2023-01-15T07:50:34.186Z,89.83
2023-01-15T07:51:34.158Z,90.25
2023-01-15T07:52:34.160Z,90.19
2023-01-15T07:53:34.127Z,90.39
2023-01-15T07:54:34.152Z,90.60
2023-01-15T07:55:34.098Z,90.14
2023-01-15T07:56:34.086Z,89.98
2023-01-15T07:57:34.065Z,89.98
2023-01-15T07:58:34.050Z,90.04
2023-01-15T07:59:34.058Z,90.25
2023-01-15T08:00:34.011Z,90.29
2023-01-15T08:01:34.146Z,90.19
2023-01-15T08:02:33.983Z,90.39
2023-01-15T08:03:34.035Z,90.39
2023-01-15T08:04:33.978Z,90.19
2023-01-15T08:05:33.985Z,90.39
2023-01-15T08:06:33.909Z,90.50
2023-01-15T08:07:33.911Z,90.81
2023-01-15T08:08:33.872Z,90.29
2023-01-15T08:09:33.906Z,89.67
2023-01-15T08:10:34.005Z,90.66
2023-01-15T08:11:33.826Z,90.39
2023-01-15T08:12:33.808Z,90.60
2023-01-15T08:13:33.785Z,90.25
2023-01-15T08:14:33.812Z,89.25
2023-01-15T08:15:35.299Z,89.62
2023-01-15T08:16:33.825Z,89.98
2023-01-15T08:17:33.789Z,89.67
2023-01-15T08:18:33.714Z,89.98
2023-01-15T08:19:33.766Z,90.70
2023-01-15T08:20:33.699Z,90.29
2023-01-15T08:21:33.644Z,90.19
2023-01-15T08:22:33.648Z,90.70
2023-01-15T08:23:33.616Z,89.87
2023-01-15T08:24:33.661Z,90.50
2023-01-15T08:25:33.624Z,90.50
2023-01-15T08:26:33.570Z,90.39
2023-01-15T08:27:33.659Z,90.39
2023-01-15T08:28:34.569Z,90.08
2023-01-15T08:29:33.564Z,90.29
2023-01-15T08:30:35.713Z,90.08
2023-01-15T08:31:34.530Z,89.67
2023-01-15T08:32:33.450Z,90.19
2023-01-15T08:33:33.430Z,90.12
2023-01-15T08:34:33.502Z,90.50
2023-01-15T08:35:33.398Z,90.08
2023-01-15T08:36:33.379Z,90.39
2023-01-15T08:37:33.574Z,90.60
2023-01-15T08:38:33.344Z,89.87
2023-01-15T08:39:33.347Z,90.04
2023-01-15T08:40:33.366Z,89.15
2023-01-15T08:41:33.312Z,90.39
2023-01-15T08:42:33.287Z,89.77
2023-01-15T08:43:34.247Z,90.19
2023-01-15T08:44:33.266Z,90.50
2023-01-15T08:45:33.297Z,90.50
2023-01-15T08:46:33.443Z,91.02
2023-01-15T08:47:33.204Z,90.29
2023-01-15T08:48:33.203Z,90.25
2023-01-15T08:49:33.200Z,90.50
2023-01-15T08:50:33.345Z,90.50
2023-01-15T08:51:33.122Z,90.29
2023-01-15T08:52:33.119Z,90.45
2023-01-15T08:53:34.271Z,90.45
2023-01-15T08:54:33.083Z,89.94
2023-01-15T08:55:33.115Z,90.45
2023-01-15T08:56:33.050Z,90.56
2023-01-15T08:57:33.032Z,89.73
2023-01-15T08:58:33.084Z,90.14
2023-01-15T08:59:33.536Z,90.04
2023-01-15T09:00:33.092Z,89.58
2023-01-15T09:01:33.096Z,89.38
2023-01-15T09:02:32.961Z,89.38
2023-01-15T09:03:32.930Z,89.17
2023-01-15T09:04:32.978Z,88.55
2023-01-15T09:05:32.927Z,88.86
2023-01-15T09:06:32.880Z,88.96
2023-01-15T09:07:32.927Z,88.96
2023-01-15T09:08:32.877Z,89.28
2023-01-15T09:09:32.837Z,88.45
2023-01-15T09:10:33.837Z,88.59
2023-01-15T09:11:32.836Z,88.86
2023-01-15T09:12:32.836Z,89.17
2023-01-15T09:13:32.765Z,89.28
2023-01-15T09:14:58.947Z,89.69
2023-01-15T09:15:33.760Z,88.28
2023-01-15T09:16:32.739Z,89.07
2023-01-15T09:17:32.700Z,89.69
2023-01-15T09:18:33.368Z,89.58
2023-01-15T09:19:32.674Z,90.41
2023-01-15T09:20:34.115Z,89.21
2023-01-15T09:21:33.636Z,89.48
2023-01-15T09:22:32.596Z,90.00
2023-01-15T09:23:32.610Z,88.86
2023-01-15T09:24:32.599Z,89.89
2023-01-15T09:25:32.616Z,89.89
2023-01-15T09:26:32.550Z,90.41
2023-01-15T09:27:33.982Z,90.00
2023-01-15T09:28:32.511Z,89.79
2023-01-15T09:29:32.492Z,89.79
2023-01-15T09:30:32.705Z,89.79
2023-01-15T09:31:32.448Z,89.69
2023-01-15T09:32:32.434Z,88.71
2023-01-15T09:33:32.404Z,88.45
2023-01-15T09:34:32.399Z,88.65
2023-01-15T09:35:32.510Z,89.28
2023-01-15T09:36:32.353Z,88.45
2023-01-15T09:37:32.362Z,89.17
2023-01-15T09:38:32.883Z,88.13
2023-01-15T09:39:32.422Z,88.76
2023-01-15T09:40:32.353Z,89.21
2023-01-15T09:41:32.363Z,88.76
2023-01-15T09:42:32.259Z,89.17
2023-01-15T09:43:32.271Z,89.69
2023-01-15T09:44:32.230Z,89.75
2023-01-15T09:45:32.263Z,89.75
2023-01-15T09:46:32.241Z,88.51
2023-01-15T09:47:32.195Z,88.51
2023-01-15T09:48:32.158Z,88.82
2023-01-15T09:49:32.147Z,88.40
2023-01-15T09:50:32.148Z,88.09
2023-01-15T09:51:32.108Z,87.88
2023-01-15T09:52:32.102Z,87.88
2023-01-15T09:53:32.074Z,88.09
2023-01-15T09:54:32.061Z,87.88
2023-01-15T09:55:32.087Z,87.88
2023-01-15T09:56:33.258Z,88.40
2023-01-15T09:57:32.092Z,87.88
2023-01-15T09:58:31.994Z,87.68
2023-01-15T09:59:34.169Z,87.68
2023-01-15T10:00:31.980Z,87.47
2023-01-15T10:01:32.010Z,87.37
2023-01-15T10:02:31.936Z,87.57
2023-01-15T10:03:32.126Z,87.12
2023-01-15T10:04:31.968Z,87.47
2023-01-15T10:05:31.898Z,87.37
2023-01-15T10:06:31.845Z,87.47
2023-01-15T10:07:31.848Z,87.68
2023-01-15T10:08:31.880Z,87.47
2023-01-15T10:09:31.810Z,87.33
2023-01-15T10:10:31.826Z,87.37
2023-01-15T10:11:31.776Z,86.40
2023-01-15T10:12:31.757Z,87.74
2023-01-15T10:13:31.763Z,86.81
2023-01-15T10:14:31.718Z,86.60
2023-01-15T10:15:31.761Z,87.02
2023-01-15T10:16:31.698Z,85.99
2023-01-15T10:17:31.668Z,86.29
2023-01-15T10:18:31.649Z,86.81
2023-01-15T10:19:43.891Z,86.81
2023-01-15T10:20:33.663Z,86.29
2023-01-15T10:21:31.598Z,85.57
2023-01-15T10:22:31.592Z,85.99
2023-01-15T10:23:31.596Z,86.29
2023-01-15T10:24:31.550Z,85.99
2023-01-15T10:25:31.566Z,86.50
2023-01-15T10:26:31.530Z,85.57
2023-01-15T10:27:31.492Z,85.78
2023-01-15T10:28:31.488Z,85.68
2023-01-15T10:29:31.470Z,85.68
2023-01-15T10:30:31.470Z,85.99
2023-01-15T10:31:31.434Z,85.88
2023-01-15T10:32:31.413Z,86.19
2023-01-15T10:33:31.385Z,85.05
2023-01-15T10:34:31.372Z,85.42
2023-01-15T10:35:31.381Z,85.88
2023-01-15T10:36:31.341Z,85.99
2023-01-15T10:37:31.341Z,85.88
2023-01-15T10:38:31.321Z,85.57
2023-01-15T10:39:31.318Z,85.53
2023-01-15T10:40:31.339Z,85.36
2023-01-15T10:41:31.268Z,84.74
2023-01-15T10:42:31.232Z,84.64
2023-01-15T10:43:31.226Z,84.53
2023-01-15T10:44:31.712Z,83.91
2023-01-15T10:45:32.391Z,83.87
2023-01-15T10:46:31.203Z,84.01
2023-01-15T10:47:31.152Z,83.81
2023-01-15T10:48:31.134Z,83.50
2023-01-15T10:49:31.143Z,85.42
2023-01-15T10:50:31.251Z,82.57
2023-01-15T10:51:31.088Z,82.15
2023-01-15T10:52:31.067Z,84.08
2023-01-15T10:53:31.079Z,83.40
2023-01-15T10:54:31.027Z,82.15
2023-01-15T10:55:31.085Z,82.67
2023-01-15T10:56:30.986Z,82.46
2023-01-15T10:57:30.985Z,82.26
2023-01-15T10:58:30.972Z,82.36
2023-01-15T10:59:30.955Z,81.84
2023-01-15T11:00:30.985Z,83.09
2023-01-15T11:01:31.017Z,83.40
2023-01-15T11:02:30.982Z,81.74
2023-01-15T11:03:30.879Z,81.95
2023-01-15T11:04:30.858Z,81.23
2023-01-15T11:05:30.870Z,81.84
2023-01-15T11:06:31.814Z,81.95
2023-01-15T11:07:30.794Z,82.43
2023-01-15T11:09:07.912Z,82.43
2023-01-15T11:09:32.853Z,81.29
2023-01-15T11:10:30.761Z,81.09
2023-01-15T11:11:30.765Z,81.56
2023-01-15T11:12:30.722Z,81.70
2023-01-15T11:13:30.727Z,81.39
2023-01-15T11:14:30.695Z,80.98
2023-01-15T11:15:30.713Z,80.98
2023-01-15T11:16:30.711Z,81.70
2023-01-15T11:17:30.652Z,81.39
2023-01-15T11:18:33.262Z,81.15
2023-01-15T11:19:30.630Z,80.32
2023-01-15T11:20:30.615Z,79.87
2023-01-15T11:21:30.612Z,80.39
2023-01-15T11:22:30.600Z,78.97
2023-01-15T11:23:30.536Z,75.73
2023-01-15T11:24:30.504Z,76.49
2023-01-15T11:25:30.494Z,76.49
2023-01-15T11:26:30.509Z,75.87
2023-01-15T11:27:30.517Z,76.32
2023-01-15T11:28:30.449Z,75.77
2023-01-15T11:29:30.419Z,74.74
2023-01-15T11:30:30.405Z,74.67
2023-01-15T11:31:30.479Z,75.43
2023-01-15T11:32:30.394Z,75.77
2023-01-15T11:33:30.350Z,75.81
2023-01-15T11:34:30.346Z,76.42
2023-01-15T11:35:30.327Z,78.01
2023-01-15T11:36:30.334Z,78.31
2023-01-15T11:37:30.295Z,78.52
2023-01-15T11:38:30.276Z,78.31
2023-01-15T11:39:30.262Z,78.69
2023-01-15T11:40:30.245Z,77.22
2023-01-15T11:41:30.271Z,76.90
2023-01-15T11:42:30.199Z,77.66
2023-01-15T11:43:30.186Z,76.98
2023-01-15T11:44:30.213Z,78.35
2023-01-15T11:45:30.159Z,78.31
2023-01-15T11:46:30.199Z,78.73
2023-01-15T11:47:30.139Z,78.11
2023-01-15T11:48:30.111Z,78.45
2023-01-15T11:49:30.075Z,78.14
2023-01-15T11:50:30.058Z,78.45
2023-01-15T11:51:30.082Z,78.14
2023-01-15T11:52:30.033Z,78.25
2023-01-15T11:53:30.074Z,79.04
2023-01-15T11:54:30.023Z,76.73
2023-01-15T11:55:29.992Z,76.73
2023-01-15T11:56:30.036Z,76.15
2023-01-15T11:57:29.943Z,75.87
2023-01-15T11:58:29.918Z,74.50
2023-01-15T11:59:29.910Z,73.91
2023-01-15T12:00:30.473Z,74.53
2023-01-15T12:01:30.024Z,73.74
2023-01-15T12:04:02.949Z,73.43
2023-01-15T12:05:02.808Z,73.43
2023-01-15T12:06:02.815Z,74.08
2023-01-15T12:07:02.795Z,73.88
2023-01-15T12:08:02.731Z,75.53
2023-01-15T12:09:02.759Z,74.19
2023-01-15T12:10:02.704Z,74.29
2023-01-15T12:11:11.634Z,74.91
2023-01-15T12:12:03.653Z,75.56
2023-01-15T12:13:02.637Z,74.95
2023-01-15T12:14:02.663Z,75.98
2023-01-15T12:15:02.607Z,76.49
2023-01-15T12:16:03.859Z,75.77
2023-01-15T12:17:03.730Z,75.77
2023-01-15T12:18:03.720Z,75.91
2023-01-15T12:19:03.720Z,75.74
2023-01-15T12:20:03.665Z,75.70
2023-01-15T12:21:03.693Z,77.28
2023-01-15T12:22:03.657Z,78.01
2023-01-15T12:23:03.654Z,76.98
2023-01-15T12:24:03.605Z,76.56
2023-01-15T12:25:03.619Z,77.91
2023-01-15T12:26:03.563Z,76.67
2023-01-15T12:27:05.249Z,77.49
2023-01-15T12:28:03.547Z,76.25
2023-01-15T12:29:03.519Z,76.81
2023-01-15T12:30:04.500Z,76.67
2023-01-15T12:31:03.515Z,77.91
2023-01-15T12:32:03.497Z,76.08
2023-01-15T12:33:03.444Z,76.77
2023-01-15T12:34:03.423Z,76.18
2023-01-15T12:35:03.414Z,75.98
2023-01-15T12:36:03.388Z,75.57
2023-01-15T12:37:03.476Z,75.87
2023-01-15T12:38:03.349Z,76.70
2023-01-15T12:39:03.438Z,76.43
2023-01-15T12:40:03.367Z,76.22
2023-01-15T12:41:03.340Z,75.70
2023-01-15T12:42:03.308Z,76.01
2023-01-15T12:43:03.272Z,76.64
2023-01-15T12:44:03.380Z,76.84
2023-01-15T12:45:03.226Z,76.64
2023-01-15T12:46:03.220Z,77.36
2023-01-15T12:47:03.235Z,77.04
2023-01-15T12:48:03.203Z,77.81
2023-01-15T12:49:03.163Z,77.15
2023-01-15T12:50:03.150Z,76.84
2023-01-15T12:51:03.135Z,76.81
2023-01-15T12:52:03.160Z,76.39
2023-01-15T12:53:03.123Z,76.18
2023-01-15T12:54:03.076Z,75.19
2023-01-15T12:55:03.067Z,76.22
2023-01-15T12:56:03.105Z,76.81